createdAt,value
2018-08-16T00:01:32.373Z,101181.89
2018-08-16T00:04:00.776Z,101181.09
2018-08-16T00:06:29.302Z,101182.01
2018-08-16T00:08:58.335Z,101184.69
2018-08-16T00:11:26.824Z,101186.97
2018-08-16T00:13:56.143Z,101190.48
2018-08-16T00:16:24.611Z,101186.97
2018-08-16T00:18:53.135Z,101189.08
2018-08-16T00:21:21.555Z,101186.45
2018-08-16T00:23:50.092Z,101183.03
2018-08-16T00:26:18.882Z,101181.77
2018-08-16T00:28:47.283Z,101177.38
2018-08-16T00:31:15.692Z,101180.84
2018-08-16T00:33:44.458Z,101183.06
2018-08-16T00:36:12.942Z,101183.52
2018-08-16T00:38:41.964Z,101183.48
2018-08-16T00:41:10.411Z,101182.19
2018-08-16T00:43:38.881Z,101185.25
2018-08-16T00:46:07.647Z,101185.25
2018-08-16T00:48:36.048Z,101184.43
2018-08-16T00:51:04.444Z,101161.74
2018-08-16T00:53:33.229Z,101180.25
2018-08-16T00:56:01.640Z,101180.69
2018-08-16T00:58:30.067Z,101179.45
2018-08-16T01:00:58.536Z,101174.80
2018-08-16T01:03:27.021Z,101172.21
2018-08-16T01:05:56.484Z,101172.67
2018-08-16T01:08:24.932Z,101174.44
2018-08-16T01:10:53.352Z,101168.82
2018-08-16T01:13:21.751Z,101175.30
2018-08-16T01:15:51.356Z,101170.12
2018-08-16T01:18:19.791Z,101168.87
2018-08-16T01:20:48.240Z,101162.92
2018-08-16T01:23:16.988Z,101166.83
2018-08-16T01:25:45.364Z,101167.68
2018-08-16T01:28:13.852Z,101163.83
2018-08-16T01:30:42.334Z,101166.03
2018-08-16T01:33:11.409Z,101170.80
2018-08-16T01:35:39.937Z,101166.06
2018-08-16T01:38:08.357Z,101165.17
2018-08-16T01:40:37.708Z,101169.05
2018-08-16T01:43:06.177Z,101171.25
2018-08-16T01:45:34.648Z,101168.68
2018-08-16T01:48:03.047Z,101162.20
2018-08-16T01:50:31.465Z,101166.08
2018-08-16T01:52:59.852Z,101164.38
2018-08-16T01:55:28.303Z,101161.77
2018-08-16T01:57:57.384Z,101161.77
2018-08-16T02:00:25.824Z,101156.59
2018-08-16T02:02:54.318Z,101149.32
2018-08-16T02:05:22.796Z,101156.66
2018-08-16T02:07:51.262Z,101155.81
2018-08-16T02:10:19.720Z,101158.01
2018-08-16T02:12:48.133Z,101166.22
2018-08-16T02:15:16.515Z,101165.43
2018-08-16T02:17:44.973Z,101156.84
2018-08-16T02:20:14.732Z,101154.22
2018-08-16T02:22:43.829Z,101155.93
2018-08-16T02:25:12.285Z,101155.52
2018-08-16T02:27:40.732Z,101152.52
2018-08-16T02:30:09.925Z,101151.66
2018-08-16T02:32:38.895Z,101152.09
2018-08-16T02:35:08.773Z,101149.48
2018-08-16T02:37:37.208Z,101146.95
2018-08-16T02:40:06.932Z,101142.63
2018-08-16T02:42:35.380Z,101136.22
2018-08-16T02:45:03.837Z,101130.62
2018-08-16T02:47:32.256Z,101129.77
2018-08-16T02:50:00.634Z,101131.92
2018-08-16T02:52:29.600Z,101126.36
2018-08-16T02:54:58.028Z,101125.95
2018-08-16T02:57:26.491Z,101128.58
2018-08-16T02:59:54.915Z,101121.24
2018-08-16T03:02:23.428Z,101123.45
2018-08-16T03:04:51.824Z,101120.88
2018-08-16T03:07:20.251Z,101119.16
2018-08-16T03:09:48.644Z,101111.89
2018-08-16T03:12:17.721Z,101105.00
2018-08-16T03:14:46.140Z,101108.05
2018-08-16T03:17:14.548Z,101107.20
2018-08-16T03:19:42.992Z,101110.64
2018-08-16T03:22:11.428Z,101105.89
2018-08-16T03:24:39.865Z,101103.80
2018-08-16T03:27:08.415Z,101100.38
2018-08-16T03:29:36.840Z,101093.48
2018-08-16T03:32:05.628Z,101091.77
2018-08-16T03:34:34.181Z,101096.08
2018-08-16T03:37:02.777Z,101091.78
2018-08-16T03:39:31.205Z,101087.89
2018-08-16T03:41:59.647Z,101079.67
2018-08-16T03:44:28.064Z,101082.69
2018-08-16T03:46:56.441Z,101078.84
2018-08-16T03:49:24.854Z,101082.71
2018-08-16T03:51:53.281Z,101080.13
2018-08-16T03:54:21.728Z,101084.05
2018-08-16T03:56:50.829Z,101077.14
2018-08-16T03:59:19.288Z,101083.59
2018-08-16T04:01:47.756Z,101082.33
2018-08-16T04:04:16.184Z,101083.17
2018-08-16T04:06:45.151Z,101078.44
2018-08-16T04:09:13.649Z,101089.20
2018-08-16T04:11:42.289Z,101083.59
2018-08-16T04:14:11.682Z,101086.61
2018-08-16T04:16:40.132Z,101084.06
2018-08-16T04:19:08.631Z,101082.34
2018-08-16T04:21:37.020Z,101089.24
2018-08-16T04:24:05.481Z,101084.52
2018-08-16T04:26:33.897Z,101084.93
2018-08-16T04:29:02.353Z,101086.19
2018-08-16T04:31:32.284Z,101086.62
2018-08-16T04:34:00.702Z,101089.66
2018-08-16T04:36:29.124Z,101090.10
2018-08-16T04:38:57.515Z,101094.84
2018-08-16T04:41:25.994Z,101095.69
2018-08-16T04:43:54.398Z,101092.24
2018-08-16T04:46:22.772Z,101090.95
2018-08-16T04:48:51.204Z,101088.79
2018-08-16T04:51:19.638Z,101094.81
2018-08-16T04:53:48.056Z,101097.39
2018-08-16T04:56:16.479Z,101096.98
2018-08-16T04:58:44.921Z,101078.50
2018-08-16T05:01:13.372Z,101096.99
2018-08-16T05:03:41.883Z,101099.14
2018-08-16T05:06:10.508Z,101090.98
2018-08-16T05:08:38.968Z,101093.97
2018-08-16T05:11:07.470Z,101099.12
2018-08-16T05:13:35.852Z,101099.55
2018-08-16T05:16:04.309Z,101095.22
2018-08-16T05:18:32.764Z,101094.38
2018-08-16T05:21:01.207Z,101098.24
2018-08-16T05:23:29.576Z,101093.95
2018-08-16T05:25:58.033Z,101096.95
2018-08-16T05:28:26.444Z,101102.09
2018-08-16T05:30:54.869Z,101102.50
2018-08-16T05:33:29.072Z,101093.45
2018-08-16T05:35:57.611Z,101093.83
2018-08-16T05:38:26.128Z,101099.42
2018-08-16T05:40:54.587Z,101099.38
2018-08-16T05:43:23.129Z,101101.48
2018-08-16T05:45:51.538Z,101098.85
2018-08-16T05:48:19.957Z,101103.11
2018-08-16T05:50:48.481Z,101097.50
2018-08-16T05:53:16.800Z,101092.26
2018-08-16T05:55:45.193Z,101090.92
2018-08-16T05:58:13.628Z,101091.72
2018-08-16T06:00:42.069Z,101095.50
2018-08-16T06:03:10.677Z,101092.45
2018-08-16T06:05:39.138Z,101088.05
2018-08-16T06:08:07.620Z,101084.98
2018-08-16T06:10:36.096Z,101075.88
2018-08-16T06:13:04.563Z,101080.08
2018-08-16T06:15:33.126Z,101074.38
2018-08-16T06:18:01.531Z,101072.59
2018-08-16T06:20:29.975Z,101066.05
2018-08-16T06:22:58.480Z,101063.41
2018-08-16T06:25:26.936Z,101060.78
2018-08-16T06:27:55.372Z,101060.73
2018-08-16T06:30:23.892Z,101063.68
2018-08-16T06:32:52.336Z,101063.17
2018-08-16T06:35:20.776Z,101058.84
2018-08-16T06:37:49.264Z,101054.45
2018-08-16T06:40:18.137Z,101062.98
2018-08-16T06:42:47.661Z,101058.59
2018-08-16T06:45:16.170Z,101058.52
2018-08-16T06:47:44.635Z,101049.83
2018-08-16T06:50:13.108Z,101048.11
2018-08-16T06:52:41.673Z,101054.92
2018-08-16T06:55:10.761Z,101049.25
2018-08-16T06:57:39.231Z,101053.94
2018-08-16T07:00:08.264Z,101053.46
2018-08-16T07:02:36.913Z,101055.13
2018-08-16T07:05:06.239Z,101055.48
2018-08-16T07:07:34.657Z,101050.22
2018-08-16T07:10:03.095Z,101058.80
2018-08-16T07:12:31.645Z,101058.31
2018-08-16T07:15:00.105Z,101056.95
2018-08-16T07:17:28.571Z,101057.31
2018-08-16T07:19:57.049Z,101057.73
2018-08-16T07:22:25.447Z,101057.67
2018-08-16T07:24:53.931Z,101048.11
2018-08-16T07:27:22.325Z,101047.61
2018-08-16T07:29:50.817Z,101040.59
2018-08-16T07:32:19.544Z,101031.47
2018-08-16T07:34:47.953Z,101040.87
2018-08-16T07:37:16.457Z,101037.24
2018-08-16T07:39:44.904Z,101038.09
2018-08-16T07:42:13.336Z,101034.14
2018-08-16T07:44:41.796Z,101041.02
2018-08-16T07:47:10.283Z,101041.78
2018-08-16T07:49:38.816Z,101036.94
2018-08-16T07:52:07.417Z,101040.73
2018-08-16T07:54:35.763Z,101038.65
2018-08-16T07:57:04.484Z,101047.70
2018-08-16T07:59:32.947Z,101044.63
2018-08-16T08:02:02.500Z,101044.19
2018-08-16T08:07:23.321Z,101041.97
2018-08-16T08:09:51.812Z,101044.16
2018-08-16T08:12:20.251Z,101044.22
2018-08-16T08:14:48.711Z,101049.00
2018-08-16T08:17:17.163Z,101049.34
2018-08-16T08:19:46.573Z,101049.70
2018-08-16T08:22:15.001Z,101050.55
2018-08-16T08:24:43.456Z,101041.30
2018-08-16T08:27:11.912Z,101054.69
2018-08-16T08:29:40.343Z,101038.95
2018-08-16T08:32:08.791Z,101038.00
2018-08-16T08:34:37.318Z,101040.08
2018-08-16T08:37:17.078Z,101042.12
2018-08-16T08:39:45.571Z,101039.47
2018-08-16T08:42:14.017Z,101033.86
2018-08-16T08:44:42.511Z,101034.23
2018-08-16T08:47:11.230Z,101025.59
2018-08-16T08:49:39.677Z,101021.70
2018-08-16T08:52:08.245Z,101014.75
2018-08-16T08:54:52.149Z,101017.77
2018-08-16T08:57:32.611Z,101013.91
2018-08-16T09:00:01.079Z,101005.19
2018-08-16T09:02:29.561Z,101006.75
2018-08-16T09:04:58.096Z,101003.59
2018-08-16T09:07:26.605Z,100997.06
2018-08-16T09:11:17.168Z,100994.47
2018-08-16T09:14:01.116Z,100988.23
2018-08-16T09:16:33.822Z,100990.23
2018-08-16T09:19:02.622Z,100986.78
2018-08-16T09:21:31.590Z,100976.79
2018-08-16T09:24:00.722Z,100982.28
2018-08-16T09:26:34.289Z,100984.62
2018-08-16T09:29:02.947Z,100983.83
2018-08-16T09:31:43.491Z,100985.81
2018-08-16T09:34:27.344Z,100979.87
2018-08-16T09:36:55.776Z,100977.05
2018-08-16T09:39:24.351Z,100981.69
2018-08-16T09:41:52.724Z,100969.35
2018-08-16T09:44:21.178Z,100970.16
2018-08-16T09:47:07.096Z,100967.52
2018-08-16T09:49:41.488Z,100966.88
2018-08-16T09:52:10.970Z,100960.33
2018-08-16T09:54:39.492Z,100960.78
2018-08-16T09:57:09.090Z,100955.63
2018-08-16T09:59:37.540Z,100951.22
2018-08-16T10:02:07.594Z,100956.28
2018-08-16T10:04:36.084Z,100949.28
2018-08-16T10:07:04.695Z,100945.83
2018-08-16T10:09:33.152Z,100951.30
2018-08-16T10:12:02.668Z,100941.64
2018-08-16T10:14:31.385Z,100945.23
2018-08-16T10:16:59.880Z,100942.17
2018-08-16T10:19:28.983Z,100940.02
2018-08-16T10:21:57.541Z,100935.23
2018-08-16T10:24:25.989Z,100940.73
2018-08-16T10:26:54.530Z,100937.19
2018-08-16T10:29:22.911Z,100932.93
2018-08-16T10:31:51.338Z,100925.12
2018-08-16T10:34:19.879Z,100926.53
2018-08-16T10:36:48.296Z,100927.64
2018-08-16T10:39:17.856Z,100923.24
2018-08-16T10:41:46.395Z,100915.02
2018-08-16T10:44:15.243Z,100924.40
2018-08-16T10:46:43.773Z,100926.84
2018-08-16T10:49:12.189Z,100923.64
2018-08-16T10:51:40.653Z,100919.94
2018-08-16T10:54:09.136Z,100919.38
2018-08-16T10:56:37.614Z,100915.23
2018-08-16T10:59:06.303Z,100912.94
2018-08-16T11:01:34.709Z,100916.17
2018-08-16T11:04:04.140Z,100915.32
2018-08-16T11:06:32.614Z,100915.07
2018-08-16T11:09:01.110Z,100914.40
2018-08-16T11:11:29.532Z,100908.11
2018-08-16T11:13:57.963Z,100908.11
2018-08-16T11:16:26.461Z,100907.19
2018-08-16T11:18:54.893Z,100910.82
2018-08-16T11:21:23.296Z,100898.81
2018-08-16T11:23:51.815Z,100895.41
2018-08-16T11:26:20.237Z,100894.85
2018-08-16T11:28:48.648Z,100899.00
2018-08-16T11:31:17.189Z,100900.09
2018-08-16T11:33:45.632Z,100897.04
2018-08-16T11:36:14.029Z,100888.87
2018-08-16T11:38:42.490Z,100893.68
2018-08-16T11:41:10.968Z,100889.05
2018-08-16T11:43:39.409Z,100885.85
2018-08-16T11:46:07.884Z,100873.66
2018-08-16T11:48:36.315Z,100874.17
2018-08-16T11:51:04.821Z,100871.56
2018-08-16T11:53:33.309Z,100865.44
2018-08-16T11:56:01.753Z,100867.65
2018-08-16T11:58:30.190Z,100868.05
2018-08-16T12:00:58.630Z,100871.17
2018-08-16T12:03:27.057Z,100869.63
2018-08-16T12:05:56.109Z,100855.88
2018-08-16T12:08:24.547Z,100861.14
2018-08-16T12:10:53.202Z,100861.20
2018-08-16T12:13:21.630Z,100855.20
2018-08-16T12:15:50.058Z,100853.13
2018-08-16T12:18:18.481Z,100850.52
2018-08-16T12:20:46.939Z,100851.78
2018-08-16T12:23:15.396Z,100844.52
2018-08-16T12:25:44.842Z,100846.28
2018-08-16T12:28:13.285Z,100843.12
2018-08-16T12:30:41.704Z,100839.73
2018-08-16T12:33:11.589Z,100840.83
2018-08-16T12:35:40.010Z,100830.34
2018-08-16T12:38:08.512Z,100823.37
2018-08-16T12:40:37.004Z,100828.45
2018-08-16T12:43:05.452Z,100825.72
2018-08-16T12:45:33.885Z,100822.77
2018-08-16T12:48:02.265Z,100819.22
2018-08-16T12:50:30.713Z,100810.98
2018-08-16T12:53:00.683Z,100806.36
2018-08-16T12:55:29.092Z,100804.94
2018-08-16T12:57:57.509Z,100802.55
2018-08-16T13:00:25.980Z,100809.88
2018-08-16T13:02:54.417Z,100798.94
2018-08-16T13:05:22.916Z,100794.39
2018-08-16T13:07:51.363Z,100795.16
2018-08-16T13:10:19.831Z,100785.48
2018-08-16T13:12:48.294Z,100779.09
2018-08-16T13:15:17.341Z,100778.95
2018-08-16T13:17:46.026Z,100783.30
2018-08-16T13:20:14.494Z,100775.06
2018-08-16T13:22:42.912Z,100771.98
2018-08-16T13:25:11.341Z,100776.42
2018-08-16T13:27:39.855Z,100777.63
2018-08-16T13:30:08.821Z,100781.99
2018-08-16T13:32:37.408Z,100782.73
2018-08-16T13:35:05.888Z,100778.81
2018-08-16T13:37:34.335Z,100776.28
2018-08-16T13:40:02.805Z,100774.42
2018-08-16T13:42:32.341Z,100766.33
2018-08-16T13:45:00.716Z,100768.79
2018-08-16T13:47:29.183Z,100764.70
2018-08-16T13:49:57.608Z,100763.58
2018-08-16T13:52:26.053Z,100765.80
2018-08-16T13:54:55.025Z,100767.11
2018-08-16T13:57:23.392Z,100762.69
2018-08-16T13:59:52.663Z,100760.44
2018-08-16T14:02:21.085Z,100766.83
2018-08-16T14:04:49.583Z,100756.32
2018-08-16T14:07:18.033Z,100756.23
2018-08-16T14:09:46.476Z,100755.01
2018-08-16T14:12:14.961Z,100749.86
2018-08-16T14:14:43.426Z,100746.08
2018-08-16T14:17:11.887Z,100745.95
2018-08-16T14:19:40.256Z,100742.89
2018-08-16T14:22:08.765Z,100740.02
2018-08-16T14:24:37.192Z,100737.79
2018-08-16T14:27:05.652Z,100746.22
2018-08-16T14:29:34.094Z,100737.79
2018-08-16T14:32:02.558Z,100738.37
2018-08-16T14:34:30.982Z,100729.74
2018-08-16T14:37:00.421Z,100735.98
2018-08-16T14:39:28.873Z,100731.29
2018-08-16T14:41:57.314Z,100726.59
2018-08-16T14:44:25.715Z,100726.67
2018-08-16T14:46:54.191Z,100714.95
2018-08-16T14:49:22.772Z,100721.24
2018-08-16T14:51:51.277Z,100718.67
2018-08-16T14:54:19.672Z,100718.15
2018-08-16T14:56:48.097Z,100719.09
2018-08-16T14:59:16.655Z,100724.34
2018-08-16T15:01:45.133Z,100728.41
2018-08-16T15:04:13.576Z,100728.02
2018-08-16T15:06:42.295Z,100712.81
2018-08-16T15:09:11.791Z,100712.64
2018-08-16T15:11:41.156Z,100716.75
2018-08-16T15:14:09.565Z,100715.75
2018-08-16T15:16:38.241Z,100713.30
2018-08-16T15:19:06.728Z,100708.89
2018-08-16T15:21:35.297Z,100711.22
2018-08-16T15:24:03.900Z,100714.23
2018-08-16T15:26:32.343Z,100708.63
2018-08-16T15:29:00.722Z,100707.69
2018-08-16T15:31:29.453Z,100701.97
2018-08-16T15:33:57.893Z,100701.79
2018-08-16T15:36:26.292Z,100701.79
2018-08-16T15:38:55.001Z,100699.25
2018-08-16T15:41:24.228Z,100699.08
2018-08-16T15:43:52.675Z,100699.38
2018-08-16T15:46:21.161Z,100705.56
2018-08-16T15:48:49.571Z,100697.13
2018-08-16T15:51:18.031Z,100695.98
2018-08-16T15:53:46.477Z,100686.24
2018-08-16T15:56:15.919Z,100691.34
2018-08-16T15:58:44.320Z,100689.97
2018-08-16T16:01:12.775Z,100689.68
2018-08-16T16:03:41.165Z,100688.83
2018-08-16T16:06:09.734Z,100685.25
2018-08-16T16:08:38.093Z,100680.43
2018-08-16T16:11:06.735Z,100682.16
2018-08-16T16:13:35.558Z,100687.14
2018-08-16T16:16:04.042Z,100685.16
2018-08-16T16:18:33.309Z,100683.33
2018-08-16T16:21:01.731Z,100682.74
2018-08-16T16:23:30.738Z,100680.20
2018-08-16T16:25:59.174Z,100679.94
2018-08-16T16:28:27.602Z,100676.58
2018-08-16T16:30:56.064Z,100679.12
2018-08-16T16:33:24.496Z,100682.62
2018-08-16T16:35:53.007Z,100678.22
2018-08-16T16:38:21.620Z,100675.41
2018-08-16T16:40:50.097Z,100680.20
2018-08-16T16:43:18.608Z,100672.49
2018-08-16T16:45:47.052Z,100671.13
2018-08-16T16:48:15.451Z,100671.88
2018-08-16T16:50:43.912Z,100666.63
2018-08-16T16:53:12.348Z,100669.08
2018-08-16T16:55:40.864Z,100667.01
2018-08-16T16:58:09.927Z,100668.67
2018-08-16T17:00:38.342Z,100665.38
2018-08-16T17:03:06.832Z,100668.27
2018-08-16T17:05:35.380Z,100669.34
2018-08-16T17:08:03.837Z,100665.97
2018-08-16T17:10:32.389Z,100663.42
2018-08-16T17:13:00.728Z,100667.19
2018-08-16T17:15:29.301Z,100665.67
2018-08-16T17:17:58.325Z,100666.23
2018-08-16T17:20:26.736Z,100667.25
2018-08-16T17:22:55.208Z,100667.56
2018-08-16T17:25:23.616Z,100665.11
2018-08-16T17:27:52.271Z,100664.52
2018-08-16T17:30:20.691Z,100657.19
2018-08-16T17:32:49.120Z,100662.52
2018-08-16T17:35:17.550Z,100661.64
2018-08-16T17:37:45.991Z,100659.95
2018-08-16T17:40:14.459Z,100658.98
2018-08-16T17:42:44.869Z,100654.59
2018-08-16T17:45:13.277Z,100657.71
2018-08-16T17:47:41.928Z,100655.09
2018-08-16T17:50:10.847Z,100650.09
2018-08-16T17:52:39.489Z,100660.36
2018-08-16T17:55:08.491Z,100649.38
2018-08-16T17:57:37.159Z,100647.92
2018-08-16T18:00:07.312Z,100658.27
2018-08-16T18:02:35.849Z,100650.15
2018-08-16T18:05:04.358Z,100650.85
2018-08-16T18:07:32.837Z,100648.48
2018-08-16T18:10:01.348Z,100648.30
2018-08-16T18:12:29.780Z,100649.84
2018-08-16T18:14:58.173Z,100654.48
2018-08-16T18:17:26.682Z,100656.14
2018-08-16T18:19:55.688Z,100659.84
2018-08-16T18:22:24.141Z,100658.70
2018-08-16T18:24:52.586Z,100660.63
2018-08-16T18:27:21.060Z,100662.59
2018-08-16T18:29:49.973Z,100672.11
2018-08-16T18:32:18.478Z,100670.26
2018-08-16T18:34:46.941Z,100670.30
2018-08-16T18:37:15.376Z,100672.22
2018-08-16T18:39:43.901Z,100667.63
2018-08-16T18:42:12.400Z,100675.78
2018-08-16T18:44:40.860Z,100674.77
2018-08-16T18:47:09.289Z,100676.69
2018-08-16T18:49:37.728Z,100675.95
2018-08-16T18:52:06.341Z,100672.08
2018-08-16T18:54:34.868Z,100671.34
2018-08-16T18:57:03.345Z,100677.64
2018-08-16T18:59:31.851Z,100683.63
2018-08-16T19:02:00.301Z,100683.42
2018-08-16T19:04:28.749Z,100688.05
2018-08-16T19:06:57.492Z,100684.02
2018-08-16T19:09:26.876Z,100686.50
2018-08-16T19:11:55.648Z,100685.86
2018-08-16T19:14:24.154Z,100691.86
2018-08-16T19:16:52.563Z,100698.72
2018-08-16T19:19:21.021Z,100698.27
2018-08-16T19:21:49.580Z,100695.50
2018-08-16T19:24:18.180Z,100700.05
2018-08-16T19:26:46.671Z,100700.31
2018-08-16T19:29:15.208Z,100701.75
2018-08-16T19:31:43.711Z,100710.98
2018-08-16T19:34:12.378Z,100712.75
2018-08-16T19:36:40.847Z,100710.08
2018-08-16T19:39:11.484Z,100710.53
2018-08-16T19:41:40.085Z,100712.36
2018-08-16T19:44:08.680Z,100709.45
2018-08-16T19:46:37.163Z,100699.20
2018-08-16T19:49:06.252Z,100708.72
2018-08-16T19:51:34.758Z,100704.89
2018-08-16T19:54:03.249Z,100708.42
2018-08-16T19:56:31.770Z,100699.92
2018-08-16T19:59:00.209Z,100707.23
2018-08-16T20:01:28.836Z,100703.39
2018-08-16T20:03:57.243Z,100702.53
2018-08-16T20:06:25.671Z,100701.36
2018-08-16T20:08:54.142Z,100698.41
2018-08-16T20:11:22.722Z,100696.33
2018-08-16T20:13:51.214Z,100689.89
2018-08-16T20:16:19.732Z,100701.64
2018-08-16T20:18:48.238Z,100697.39
2018-08-16T20:21:16.878Z,100706.59
2018-08-16T20:23:45.354Z,100700.00
2018-08-16T20:26:13.853Z,100705.61
2018-08-16T20:28:42.326Z,100707.44
2018-08-16T20:31:11.693Z,100710.56
2018-08-16T20:33:40.137Z,100705.47
2018-08-16T20:36:08.704Z,100714.72
2018-08-16T20:38:37.171Z,100709.62
2018-08-16T20:41:05.646Z,100711.11
2018-08-16T20:43:34.200Z,100710.77
2018-08-16T20:46:02.811Z,100718.72
2018-08-16T20:48:31.280Z,100714.47
2018-08-16T20:50:59.765Z,100713.69
2018-08-16T20:53:28.274Z,100724.66
2018-08-16T20:55:56.732Z,100717.80
2018-08-16T20:58:25.211Z,100721.04
2018-08-16T21:00:53.702Z,100723.65
2018-08-16T21:03:22.220Z,100727.16
2018-08-16T21:05:50.805Z,100726.83
2018-08-16T21:08:20.099Z,100729.95
2018-08-16T21:10:49.009Z,100726.09
2018-08-16T21:13:18.204Z,100728.28
2018-08-16T21:15:46.661Z,100732.30
2018-08-16T21:18:15.147Z,100735.82
2018-08-16T21:20:43.654Z,100732.81
2018-08-16T21:23:12.065Z,100725.90
2018-08-16T21:25:40.553Z,100725.11
2018-08-16T21:28:08.964Z,100726.87
2018-08-16T21:30:37.497Z,100726.92
2018-08-16T21:33:05.892Z,100720.52
2018-08-16T21:35:34.916Z,100715.81
2018-08-16T21:38:03.333Z,100718.42
2018-08-16T21:40:31.820Z,100721.91
2018-08-16T21:43:00.221Z,100721.68
2018-08-16T21:45:28.638Z,100730.07
2018-08-16T21:47:57.112Z,100734.09
2018-08-16T21:50:25.506Z,100738.52
2018-08-16T21:52:53.982Z,100739.41
2018-08-16T21:55:22.404Z,100741.57
2018-08-16T21:57:50.886Z,100736.49
2018-08-16T22:00:33.327Z,100736.05
2018-08-16T22:03:01.784Z,100739.16
2018-08-16T22:05:40.098Z,100737.40
2018-08-16T22:08:11.012Z,100742.34
2018-08-16T22:10:40.294Z,100737.19
2018-08-16T22:13:08.788Z,100730.22
2018-08-16T22:15:37.624Z,100731.53
2018-08-16T22:18:07.158Z,100727.62
2018-08-16T22:20:35.661Z,100728.52
2018-08-16T22:23:04.168Z,100736.80
2018-08-16T22:25:32.631Z,100733.45
2018-08-16T22:28:01.029Z,100730.47
2018-08-16T22:30:29.866Z,100725.77
2018-08-16T22:32:58.307Z,100722.41
2018-08-16T22:35:26.913Z,100725.13
2018-08-16T22:37:55.631Z,100729.89
2018-08-16T22:40:24.067Z,100732.55
2018-08-16T22:42:52.529Z,100728.30
2018-08-16T22:45:20.993Z,100732.71
2018-08-16T22:47:49.459Z,100726.67
2018-08-16T22:50:17.915Z,100724.97
2018-08-16T22:52:46.316Z,100733.23
2018-08-16T22:55:14.707Z,100727.23
2018-08-16T22:57:43.104Z,100732.89
2018-08-16T23:00:12.242Z,100733.91
2018-08-16T23:02:41.361Z,100732.20
2018-08-16T23:05:09.883Z,100730.50
2018-08-16T23:07:39.250Z,100734.46
2018-08-16T23:10:07.903Z,100723.70
2018-08-16T23:12:36.334Z,100726.81
2018-08-16T23:15:05.653Z,100725.91
2018-08-16T23:17:34.091Z,100724.67
2018-08-16T23:20:02.484Z,100719.47
2018-08-16T23:22:30.948Z,100718.33
2018-08-16T23:24:59.392Z,100709.38
2018-08-16T23:27:27.907Z,100711.17
2018-08-16T23:29:56.396Z,100713.33
2018-08-16T23:32:24.837Z,100704.72
2018-08-16T23:34:53.312Z,100697.43
2018-08-16T23:37:21.769Z,100705.24
2018-08-16T23:39:50.157Z,100700.88
2018-08-16T23:42:18.654Z,100713.55
2018-08-16T23:44:47.371Z,100711.51
2018-08-16T23:47:15.969Z,100711.16
2018-08-16T23:49:44.444Z,100712.41
2018-08-16T23:52:12.856Z,100720.67
2018-08-16T23:54:41.314Z,100713.36
2018-08-16T23:57:09.701Z,100709.52
2018-08-16T23:59:38.144Z,100707.45
